sensor_id;sensor_type;location;lat;lon;timestamp;pressure;altitude;pressure_sealevel;temperature;humidity
25944;BME280;13742;49.306;8.636;2023-04-04T00:00:44;101505.55;;;3.75;49.86
25944;BME280;13742;49.306;8.636;2023-04-04T00:01:44;101508.33;;;3.75;49.93
25944;BME280;13742;49.306;8.636;2023-04-04T00:02:44;101505.44;;;3.78;50.26
25944;BME280;13742;49.306;8.636;2023-04-04T00:03:44;101507.23;;;3.80;50.24
25944;BME280;13742;49.306;8.636;2023-04-04T00:04:44;101504.17;;;3.81;50.17
25944;BME280;13742;49.306;8.636;2023-04-04T00:05:44;101502.70;;;3.82;50.17
25944;BME280;13742;49.306;8.636;2023-04-04T00:06:44;101499.43;;;3.81;50.06
25944;BME280;13742;49.306;8.636;2023-04-04T00:07:46;101503.06;;;3.83;50.10
25944;BME280;13742;49.306;8.636;2023-04-04T00:08:44;101499.22;;;3.81;50.37
25944;BME280;13742;49.306;8.636;2023-04-04T00:09:44;101500.78;;;3.83;50.47
25944;BME280;13742;49.306;8.636;2023-04-04T00:10:44;101495.91;;;3.75;49.93
25944;BME280;13742;49.306;8.636;2023-04-04T00:11:44;101498.45;;;3.76;50.06
25944;BME280;13742;49.306;8.636;2023-04-04T00:12:44;101505.02;;;3.80;50.10
25944;BME280;13742;49.306;8.636;2023-04-04T00:13:44;101492.81;;;3.74;49.94
25944;BME280;13742;49.306;8.636;2023-04-04T00:14:44;101494.28;;;3.73;49.79
25944;BME280;13742;49.306;8.636;2023-04-04T00:15:44;101494.23;;;3.73;50.09
25944;BME280;13742;49.306;8.636;2023-04-04T00:16:44;101490.93;;;3.75;50.33
25944;BME280;13742;49.306;8.636;2023-04-04T00:17:44;101489.88;;;3.77;50.16
25944;BME280;13742;49.306;8.636;2023-04-04T00:18:44;101494.73;;;3.77;49.96
25944;BME280;13742;49.306;8.636;2023-04-04T00:19:45;101496.89;;;3.70;49.50
25944;BME280;13742;49.306;8.636;2023-04-04T00:20:44;101497.67;;;3.71;50.19
25944;BME280;13742;49.306;8.636;2023-04-04T00:21:47;101494.23;;;3.69;49.81
25944;BME280;13742;49.306;8.636;2023-04-04T00:22:44;101491.65;;;3.63;49.75
25944;BME280;13742;49.306;8.636;2023-04-04T00:23:44;101491.90;;;3.65;50.30
25944;BME280;13742;49.306;8.636;2023-04-04T00:24:44;101489.25;;;3.67;50.28
25944;BME280;13742;49.306;8.636;2023-04-04T00:25:48;101488.44;;;3.69;50.33
25944;BME280;13742;49.306;8.636;2023-04-04T00:26:44;101494.31;;;3.71;50.38
25944;BME280;13742;49.306;8.636;2023-04-04T00:27:44;101490.59;;;3.70;50.12
25944;BME280;13742;49.306;8.636;2023-04-04T00:28:44;101491.25;;;3.63;50.19
25944;BME280;13742;49.306;8.636;2023-04-04T00:29:44;101490.34;;;3.63;50.14
25944;BME280;13742;49.306;8.636;2023-04-04T00:30:44;101484.34;;;3.66;50.25
25944;BME280;13742;49.306;8.636;2023-04-04T00:31:44;101485.53;;;3.68;50.16
25944;BME280;13742;49.306;8.636;2023-04-04T00:32:44;101487.48;;;3.65;49.98
25944;BME280;13742;49.306;8.636;2023-04-04T00:33:44;101483.48;;;3.61;50.02
25944;BME280;13742;49.306;8.636;2023-04-04T00:34:44;101481.44;;;3.58;50.05
25944;BME280;13742;49.306;8.636;2023-04-04T00:35:44;101486.30;;;3.55;50.10
25944;BME280;13742;49.306;8.636;2023-04-04T00:36:44;101480.54;;;3.55;50.21
25944;BME280;13742;49.306;8.636;2023-04-04T00:37:44;101484.95;;;3.55;50.54
25944;BME280;13742;49.306;8.636;2023-04-04T00:38:44;101483.59;;;3.53;50.50
25944;BME280;13742;49.306;8.636;2023-04-04T00:39:44;101482.38;;;3.55;50.45
25944;BME280;13742;49.306;8.636;2023-04-04T00:40:44;101481.84;;;3.56;50.21
25944;BME280;13742;49.306;8.636;2023-04-04T00:41:44;101478.13;;;3.55;50.07
25944;BME280;13742;49.306;8.636;2023-04-04T00:42:44;101482.42;;;3.54;50.02
25944;BME280;13742;49.306;8.636;2023-04-04T00:43:44;101479.67;;;3.52;50.22
25944;BME280;13742;49.306;8.636;2023-04-04T00:44:44;101474.00;;;3.51;50.00
25944;BME280;13742;49.306;8.636;2023-04-04T00:45:44;101479.84;;;3.49;50.04
25944;BME280;13742;49.306;8.636;2023-04-04T00:46:44;101479.95;;;3.46;50.40
25944;BME280;13742;49.306;8.636;2023-04-04T00:47:44;101477.09;;;3.47;50.45
25944;BME280;13742;49.306;8.636;2023-04-04T00:48:44;101479.63;;;3.48;50.40
25944;BME280;13742;49.306;8.636;2023-04-04T00:49:44;101476.90;;;3.49;50.81
25944;BME280;13742;49.306;8.636;2023-04-04T00:50:44;101477.96;;;3.51;50.56
25944;BME280;13742;49.306;8.636;2023-04-04T00:51:44;101474.52;;;3.48;50.06
25944;BME280;13742;49.306;8.636;2023-04-04T00:52:44;101479.09;;;3.44;50.21
25944;BME280;13742;49.306;8.636;2023-04-04T00:53:45;101474.84;;;3.43;50.35
25944;BME280;13742;49.306;8.636;2023-04-04T00:54:44;101473.78;;;3.40;50.28
25944;BME280;13742;49.306;8.636;2023-04-04T00:55:44;101474.60;;;3.43;50.29
25944;BME280;13742;49.306;8.636;2023-04-04T00:56:44;101472.20;;;3.44;50.29
25944;BME280;13742;49.306;8.636;2023-04-04T00:57:44;101476.15;;;3.42;50.45
25944;BME280;13742;49.306;8.636;2023-04-04T00:58:44;101475.05;;;3.43;50.70
25944;BME280;13742;49.306;8.636;2023-04-04T00:59:44;101483.58;;;3.46;50.67
25944;BME280;13742;49.306;8.636;2023-04-04T01:00:44;101480.80;;;3.44;50.52
25944;BME280;13742;49.306;8.636;2023-04-04T01:01:44;101479.53;;;3.41;50.77
25944;BME280;13742;49.306;8.636;2023-04-04T01:02:44;101479.63;;;3.44;50.87
25944;BME280;13742;49.306;8.636;2023-04-04T01:03:44;101479.05;;;3.45;50.64
25944;BME280;13742;49.306;8.636;2023-04-04T01:04:44;101478.44;;;3.45;50.73
25944;BME280;13742;49.306;8.636;2023-04-04T01:05:44;101479.59;;;3.46;50.75
25944;BME280;13742;49.306;8.636;2023-04-04T01:06:44;101479.79;;;3.46;50.51
25944;BME280;13742;49.306;8.636;2023-04-04T01:07:44;101483.27;;;3.48;51.07
25944;BME280;13742;49.306;8.636;2023-04-04T01:08:44;101478.53;;;3.49;51.22
25944;BME280;13742;49.306;8.636;2023-04-04T01:09:44;101480.36;;;3.45;50.83
25944;BME280;13742;49.306;8.636;2023-04-04T01:10:44;101480.32;;;3.45;51.02
25944;BME280;13742;49.306;8.636;2023-04-04T01:11:44;101483.17;;;3.44;51.16
25944;BME280;13742;49.306;8.636;2023-04-04T01:12:44;101483.55;;;3.47;51.21
25944;BME280;13742;49.306;8.636;2023-04-04T01:13:44;101483.26;;;3.47;51.24
25944;BME280;13742;49.306;8.636;2023-04-04T01:14:44;101484.73;;;3.47;50.87
25944;BME280;13742;49.306;8.636;2023-04-04T01:15:44;101485.58;;;3.44;50.69
25944;BME280;13742;49.306;8.636;2023-04-04T01:16:44;101481.66;;;3.43;50.88
25944;BME280;13742;49.306;8.636;2023-04-04T01:17:44;101478.11;;;3.41;50.76
25944;BME280;13742;49.306;8.636;2023-04-04T01:18:44;101482.44;;;3.45;51.13
25944;BME280;13742;49.306;8.636;2023-04-04T01:21:44;101483.63;;;3.43;50.96
25944;BME280;13742;49.306;8.636;2023-04-04T01:22:44;101486.27;;;3.41;50.82
25944;BME280;13742;49.306;8.636;2023-04-04T01:24:44;101482.44;;;3.40;50.98
25944;BME280;13742;49.306;8.636;2023-04-04T01:25:45;101484.90;;;3.33;50.87
25944;BME280;13742;49.306;8.636;2023-04-04T01:26:45;101484.53;;;3.33;50.95
25944;BME280;13742;49.306;8.636;2023-04-04T01:27:44;101485.75;;;3.29;50.91
25944;BME280;13742;49.306;8.636;2023-04-04T01:28:44;101486.61;;;3.31;51.37
25944;BME280;13742;49.306;8.636;2023-04-04T01:29:44;101484.25;;;3.33;51.00
25944;BME280;13742;49.306;8.636;2023-04-04T01:30:44;101480.50;;;3.33;51.37
25944;BME280;13742;49.306;8.636;2023-04-04T01:31:47;101482.81;;;3.28;51.17
25944;BME280;13742;49.306;8.636;2023-04-04T01:32:44;101476.90;;;3.29;51.32
25944;BME280;13742;49.306;8.636;2023-04-04T01:33:44;101480.25;;;3.31;51.41
25944;BME280;13742;49.306;8.636;2023-04-04T01:40:47;101479.08;;;3.37;51.59
25944;BME280;13742;49.306;8.636;2023-04-04T01:41:44;101474.50;;;3.36;51.33
25944;BME280;13742;49.306;8.636;2023-04-04T01:42:44;101475.94;;;3.38;51.67
25944;BME280;13742;49.306;8.636;2023-04-04T01:43:44;101477.04;;;3.38;51.74
25944;BME280;13742;49.306;8.636;2023-04-04T01:44:44;101472.84;;;3.37;51.81
25944;BME280;13742;49.306;8.636;2023-04-04T01:45:45;101474.59;;;3.38;51.78
25944;BME280;13742;49.306;8.636;2023-04-04T01:46:44;101474.09;;;3.34;51.92
25944;BME280;13742;49.306;8.636;2023-04-04T01:47:44;101473.11;;;3.33;51.51
25944;BME280;13742;49.306;8.636;2023-04-04T01:48:44;101477.97;;;3.32;51.44
25944;BME280;13742;49.306;8.636;2023-04-04T01:49:44;101476.00;;;3.28;51.43
25944;BME280;13742;49.306;8.636;2023-04-04T01:50:44;101469.38;;;3.24;51.41
25944;BME280;13742;49.306;8.636;2023-04-04T01:51:44;101473.98;;;3.20;51.12
25944;BME280;13742;49.306;8.636;2023-04-04T01:52:44;101476.55;;;3.23;51.20
25944;BME280;13742;49.306;8.636;2023-04-04T01:53:44;101472.06;;;3.22;51.24
25944;BME280;13742;49.306;8.636;2023-04-04T01:54:44;101469.28;;;3.20;51.41
25944;BME280;13742;49.306;8.636;2023-04-04T01:55:44;101469.15;;;3.16;51.66
25944;BME280;13742;49.306;8.636;2023-04-04T01:56:44;101469.57;;;3.20;51.79
25944;BME280;13742;49.306;8.636;2023-04-04T01:57:44;101467.61;;;3.20;51.69
25944;BME280;13742;49.306;8.636;2023-04-04T01:58:44;101467.00;;;3.21;51.86
25944;BME280;13742;49.306;8.636;2023-04-04T01:59:44;101467.59;;;3.12;51.60
25944;BME280;13742;49.306;8.636;2023-04-04T02:00:44;101466.44;;;3.10;51.81
25944;BME280;13742;49.306;8.636;2023-04-04T02:01:44;101466.73;;;3.11;51.92
25944;BME280;13742;49.306;8.636;2023-04-04T02:02:44;101463.59;;;3.12;51.61
25944;BME280;13742;49.306;8.636;2023-04-04T02:03:44;101465.39;;;3.14;52.00
25944;BME280;13742;49.306;8.636;2023-04-04T02:04:44;101465.28;;;3.17;52.07
25944;BME280;13742;49.306;8.636;2023-04-04T02:05:44;101463.59;;;3.12;51.69
25944;BME280;13742;49.306;8.636;2023-04-04T02:06:44;101463.33;;;3.09;51.29
25944;BME280;13742;49.306;8.636;2023-04-04T02:07:47;101466.32;;;3.10;51.57
25944;BME280;13742;49.306;8.636;2023-04-04T02:08:44;101468.23;;;3.11;51.73
25944;BME280;13742;49.306;8.636;2023-04-04T02:09:44;101462.84;;;3.09;51.83
25944;BME280;13742;49.306;8.636;2023-04-04T02:10:44;101462.32;;;3.11;51.72
25944;BME280;13742;49.306;8.636;2023-04-04T02:11:44;101463.47;;;3.13;52.37
25944;BME280;13742;49.306;8.636;2023-04-04T02:12:44;101461.91;;;3.09;51.70
25944;BME280;13742;49.306;8.636;2023-04-04T02:13:44;101462.51;;;3.06;51.62
25944;BME280;13742;49.306;8.636;2023-04-04T02:14:44;101466.59;;;3.06;51.97
25944;BME280;13742;49.306;8.636;2023-04-04T02:15:44;101463.98;;;3.07;52.17
25944;BME280;13742;49.306;8.636;2023-04-04T02:16:45;101468.06;;;3.09;52.00
25944;BME280;13742;49.306;8.636;2023-04-04T02:17:47;101466.41;;;3.11;52.10
25944;BME280;13742;49.306;8.636;2023-04-04T02:18:44;101464.81;;;3.10;51.86
25944;BME280;13742;49.306;8.636;2023-04-04T02:19:44;101466.16;;;3.10;51.84
25944;BME280;13742;49.306;8.636;2023-04-04T02:20:44;101468.80;;;3.08;52.24
25944;BME280;13742;49.306;8.636;2023-04-04T02:21:44;101465.17;;;3.09;52.13
25944;BME280;13742;49.306;8.636;2023-04-04T02:23:44;101466.39;;;3.10;52.13
25944;BME280;13742;49.306;8.636;2023-04-04T02:24:44;101464.44;;;3.11;52.14
25944;BME280;13742;49.306;8.636;2023-04-04T02:25:44;101465.95;;;3.11;52.13
25944;BME280;13742;49.306;8.636;2023-04-04T02:26:44;101463.80;;;3.11;52.06
25944;BME280;13742;49.306;8.636;2023-04-04T02:27:44;101465.63;;;3.10;52.12
25944;BME280;13742;49.306;8.636;2023-04-04T02:28:44;101461.67;;;3.11;52.53
25944;BME280;13742;49.306;8.636;2023-04-04T02:29:44;101462.73;;;3.13;52.38
25944;BME280;13742;49.306;8.636;2023-04-04T02:30:44;101462.16;;;3.12;52.74
25944;BME280;13742;49.306;8.636;2023-04-04T02:31:44;101464.20;;;3.13;52.65
25944;BME280;13742;49.306;8.636;2023-04-04T02:32:44;101463.06;;;3.14;52.47
25944;BME280;13742;49.306;8.636;2023-04-04T02:33:44;101463.44;;;3.16;52.53
25944;BME280;13742;49.306;8.636;2023-04-04T02:34:44;101462.18;;;3.17;52.43
25944;BME280;13742;49.306;8.636;2023-04-04T02:35:44;101463.07;;;3.17;52.37
25944;BME280;13742;49.306;8.636;2023-04-04T02:36:44;101462.01;;;3.15;52.34
25944;BME280;13742;49.306;8.636;2023-04-04T02:37:45;101463.40;;;3.15;52.54
25944;BME280;13742;49.306;8.636;2023-04-04T02:38:44;101463.15;;;3.15;52.75
25944;BME280;13742;49.306;8.636;2023-04-04T02:39:44;101462.70;;;3.14;52.85
25944;BME280;13742;49.306;8.636;2023-04-04T02:40:44;101460.05;;;3.15;52.36
25944;BME280;13742;49.306;8.636;2023-04-04T02:41:44;101457.63;;;3.10;51.79
25944;BME280;13742;49.306;8.636;2023-04-04T02:42:44;101462.95;;;3.04;51.74
25944;BME280;13742;49.306;8.636;2023-04-04T02:43:44;101463.94;;;3.06;51.97
25944;BME280;13742;49.306;8.636;2023-04-04T02:44:44;101458.30;;;3.05;52.51
25944;BME280;13742;49.306;8.636;2023-04-04T02:45:44;101459.97;;;3.04;52.19
25944;BME280;13742;49.306;8.636;2023-04-04T02:46:44;101460.14;;;3.04;52.16
25944;BME280;13742;49.306;8.636;2023-04-04T02:47:48;101461.81;;;3.03;52.00
25944;BME280;13742;49.306;8.636;2023-04-04T02:48:44;101458.42;;;3.02;52.23
25944;BME280;13742;49.306;8.636;2023-04-04T02:49:44;101456.38;;;3.00;52.07
25944;BME280;13742;49.306;8.636;2023-04-04T02:50:45;101455.09;;;2.95;52.03
25944;BME280;13742;49.306;8.636;2023-04-04T02:51:44;101454.37;;;2.97;51.99
25944;BME280;13742;49.306;8.636;2023-04-04T02:52:44;101460.28;;;2.96;51.81
25944;BME280;13742;49.306;8.636;2023-04-04T02:53:44;101456.96;;;2.94;52.25
25944;BME280;13742;49.306;8.636;2023-04-04T02:54:44;101457.53;;;2.94;52.06
25944;BME280;13742;49.306;8.636;2023-04-04T02:55:44;101462.59;;;2.93;51.98
25944;BME280;13742;49.306;8.636;2023-04-04T02:56:44;101457.23;;;2.88;52.03
25944;BME280;13742;49.306;8.636;2023-04-04T02:57:49;101457.92;;;2.88;52.17
25944;BME280;13742;49.306;8.636;2023-04-04T02:58:44;101457.75;;;2.86;52.29
25944;BME280;13742;49.306;8.636;2023-04-04T02:59:44;101452.93;;;2.84;52.49
25944;BME280;13742;49.306;8.636;2023-04-04T03:00:52;101453.39;;;2.86;52.25
25944;BME280;13742;49.306;8.636;2023-04-04T03:01:44;101456.52;;;2.84;52.12
25944;BME280;13742;49.306;8.636;2023-04-04T03:02:45;101456.96;;;2.82;52.21
25944;BME280;13742;49.306;8.636;2023-04-04T03:03:44;101455.61;;;2.82;52.21
25944;BME280;13742;49.306;8.636;2023-04-04T03:04:44;101461.41;;;2.65;52.08
25944;BME280;13742;49.306;8.636;2023-04-04T03:05:44;101455.52;;;2.60;52.04
25944;BME280;13742;49.306;8.636;2023-04-04T03:06:44;101457.56;;;2.62;52.28
25944;BME280;13742;49.306;8.636;2023-04-04T03:07:44;101457.28;;;2.63;52.19
25944;BME280;13742;49.306;8.636;2023-04-04T03:08:44;101455.93;;;2.62;52.27
25944;BME280;13742;49.306;8.636;2023-04-04T03:09:44;101451.49;;;2.63;52.17
25944;BME280;13742;49.306;8.636;2023-04-04T03:10:44;101455.03;;;2.60;52.10
25944;BME280;13742;49.306;8.636;2023-04-04T03:11:44;101453.73;;;2.60;52.13
25944;BME280;13742;49.306;8.636;2023-04-04T03:12:44;101450.06;;;2.60;52.23
25944;BME280;13742;49.306;8.636;2023-04-04T03:13:44;101452.64;;;2.55;52.31
25944;BME280;13742;49.306;8.636;2023-04-04T03:14:43;101451.75;;;2.56;52.53
25944;BME280;13742;49.306;8.636;2023-04-04T03:15:44;101456.84;;;2.57;52.61
25944;BME280;13742;49.306;8.636;2023-04-04T03:16:44;101454.73;;;2.57;52.49
25944;BME280;13742;49.306;8.636;2023-04-04T03:17:44;101455.04;;;2.55;52.42
25944;BME280;13742;49.306;8.636;2023-04-04T03:18:44;101455.41;;;2.55;52.54
25944;BME280;13742;49.306;8.636;2023-04-04T03:19:44;101453.66;;;2.54;52.63
25944;BME280;13742;49.306;8.636;2023-04-04T03:20:44;101453.06;;;2.57;52.89
25944;BME280;13742;49.306;8.636;2023-04-04T03:21:44;101460.94;;;2.59;53.05
25944;BME280;13742;49.306;8.636;2023-04-04T03:22:43;101453.66;;;2.64;52.93
25944;BME280;13742;49.306;8.636;2023-04-04T03:23:43;101454.90;;;2.59;52.50
25944;BME280;13742;49.306;8.636;2023-04-04T03:24:43;101459.02;;;2.59;52.78
25944;BME280;13742;49.306;8.636;2023-04-04T03:25:44;101453.63;;;2.58;52.62
25944;BME280;13742;49.306;8.636;2023-04-04T03:26:43;101453.72;;;2.58;52.77
25944;BME280;13742;49.306;8.636;2023-04-04T03:27:43;101454.73;;;2.59;53.06
25944;BME280;13742;49.306;8.636;2023-04-04T03:28:43;101455.15;;;2.59;52.79
25944;BME280;13742;49.306;8.636;2023-04-04T03:29:44;101453.83;;;2.57;52.78
25944;BME280;13742;49.306;8.636;2023-04-04T03:30:43;101456.58;;;2.60;52.89
25944;BME280;13742;49.306;8.636;2023-04-04T03:31:43;101459.63;;;2.59;52.87
25944;BME280;13742;49.306;8.636;2023-04-04T03:32:43;101452.59;;;2.54;52.61
25944;BME280;13742;49.306;8.636;2023-04-04T03:33:44;101456.34;;;2.54;53.23
25944;BME280;13742;49.306;8.636;2023-04-04T03:34:43;101454.90;;;2.50;52.66
25944;BME280;13742;49.306;8.636;2023-04-04T03:35:44;101457.67;;;2.50;52.66
25944;BME280;13742;49.306;8.636;2023-04-04T03:36:45;101453.31;;;2.50;52.97
25944;BME280;13742;49.306;8.636;2023-04-04T03:37:43;101450.74;;;2.43;52.73
25944;BME280;13742;49.306;8.636;2023-04-04T03:38:43;101455.82;;;2.47;53.37
25944;BME280;13742;49.306;8.636;2023-04-04T03:39:44;101458.36;;;2.50;53.51
25944;BME280;13742;49.306;8.636;2023-04-04T03:40:44;101461.02;;;2.52;53.46
25944;BME280;13742;49.306;8.636;2023-04-04T03:41:43;101460.63;;;2.54;53.28
25944;BME280;13742;49.306;8.636;2023-04-04T03:42:43;101455.66;;;2.47;52.74
25944;BME280;13742;49.306;8.636;2023-04-04T03:43:44;101460.30;;;2.40;53.05
25944;BME280;13742;49.306;8.636;2023-04-04T03:44:43;101456.93;;;2.35;52.96
25944;BME280;13742;49.306;8.636;2023-04-04T03:45:44;101455.30;;;2.34;52.92
25944;BME280;13742;49.306;8.636;2023-04-04T03:46:43;101457.86;;;2.33;53.08
25944;BME280;13742;49.306;8.636;2023-04-04T03:47:43;101455.48;;;2.31;53.01
25944;BME280;13742;49.306;8.636;2023-04-04T03:48:43;101454.89;;;2.28;52.92
25944;BME280;13742;49.306;8.636;2023-04-04T03:49:43;101456.73;;;2.29;53.25
25944;BME280;13742;49.306;8.636;2023-04-04T03:50:43;101452.93;;;2.28;53.49
25944;BME280;13742;49.306;8.636;2023-04-04T03:51:43;101454.34;;;2.31;53.58
25944;BME280;13742;49.306;8.636;2023-04-04T03:52:43;101453.24;;;2.31;53.40
25944;BME280;13742;49.306;8.636;2023-04-04T03:53:44;101453.92;;;2.30;53.00
25944;BME280;13742;49.306;8.636;2023-04-04T03:54:44;101448.93;;;2.32;53.04
25944;BME280;13742;49.306;8.636;2023-04-04T03:55:44;101448.74;;;2.28;53.00
25944;BME280;13742;49.306;8.636;2023-04-04T03:56:43;101450.91;;;2.30;53.18
25944;BME280;13742;49.306;8.636;2023-04-04T03:57:43;101451.42;;;2.27;53.42
25944;BME280;13742;49.306;8.636;2023-04-04T03:58:44;101452.49;;;2.28;53.22
25944;BME280;13742;49.306;8.636;2023-04-04T03:59:44;101451.87;;;2.26;53.34
25944;BME280;13742;49.306;8.636;2023-04-04T04:00:44;101451.64;;;2.28;53.50
25944;BME280;13742;49.306;8.636;2023-04-04T04:01:44;101453.97;;;2.29;53.23
25944;BME280;13742;49.306;8.636;2023-04-04T04:02:43;101455.70;;;2.28;53.16
25944;BME280;13742;49.306;8.636;2023-04-04T04:03:43;101453.55;;;2.29;53.63
25944;BME280;13742;49.306;8.636;2023-04-04T04:04:43;101453.38;;;2.25;53.45
25944;BME280;13742;49.306;8.636;2023-04-04T04:05:43;101456.67;;;2.25;53.45
25944;BME280;13742;49.306;8.636;2023-04-04T04:06:44;101459.77;;;2.26;53.58
25944;BME280;13742;49.306;8.636;2023-04-04T04:07:44;101454.42;;;2.18;53.26
25944;BME280;13742;49.306;8.636;2023-04-04T04:08:44;101453.58;;;2.19;53.26
25944;BME280;13742;49.306;8.636;2023-04-04T04:09:43;101455.89;;;2.18;53.35
25944;BME280;13742;49.306;8.636;2023-04-04T04:10:43;101455.31;;;2.17;53.40
25944;BME280;13742;49.306;8.636;2023-04-04T04:11:43;101453.36;;;2.17;53.37
25944;BME280;13742;49.306;8.636;2023-04-04T04:12:43;101456.06;;;2.19;53.79
25944;BME280;13742;49.306;8.636;2023-04-04T04:13:43;101456.02;;;2.19;53.77
25944;BME280;13742;49.306;8.636;2023-04-04T04:14:43;101453.22;;;2.20;53.50
25944;BME280;13742;49.306;8.636;2023-04-04T04:15:44;101454.62;;;2.17;53.51
25944;BME280;13742;49.306;8.636;2023-04-04T04:16:43;101455.61;;;2.18;53.49
25944;BME280;13742;49.306;8.636;2023-04-04T04:17:44;101452.43;;;2.19;53.67
25944;BME280;13742;49.306;8.636;2023-04-04T04:18:43;101454.89;;;2.22;53.83
25944;BME280;13742;49.306;8.636;2023-04-04T04:19:43;101449.45;;;2.19;53.46
25944;BME280;13742;49.306;8.636;2023-04-04T04:20:43;101451.39;;;2.16;53.35
25944;BME280;13742;49.306;8.636;2023-04-04T04:21:43;101458.06;;;2.14;53.35
25944;BME280;13742;49.306;8.636;2023-04-04T04:22:44;101455.70;;;2.15;53.30
25944;BME280;13742;49.306;8.636;2023-04-04T04:23:43;101454.02;;;2.17;53.49
25944;BME280;13742;49.306;8.636;2023-04-04T04:24:43;101457.35;;;2.18;53.57
25944;BME280;13742;49.306;8.636;2023-04-04T04:25:46;101458.41;;;2.11;53.33
25944;BME280;13742;49.306;8.636;2023-04-04T04:26:43;101461.83;;;2.12;53.64
25944;BME280;13742;49.306;8.636;2023-04-04T04:27:45;101456.09;;;2.12;53.53
25944;BME280;13742;49.306;8.636;2023-04-04T04:28:44;101461.11;;;2.07;53.72
25944;BME280;13742;49.306;8.636;2023-04-04T04:29:43;101464.81;;;2.07;53.48
25944;BME280;13742;49.306;8.636;2023-04-04T04:30:43;101462.50;;;2.08;53.71
25944;BME280;13742;49.306;8.636;2023-04-04T04:31:43;101463.97;;;2.08;53.73
25944;BME280;13742;49.306;8.636;2023-04-04T04:32:43;101459.09;;;2.10;53.79
25944;BME280;13742;49.306;8.636;2023-04-04T04:33:43;101460.16;;;2.05;53.76
25944;BME280;13742;49.306;8.636;2023-04-04T04:34:43;101461.09;;;2.06;53.94
25944;BME280;13742;49.306;8.636;2023-04-04T04:35:43;101458.67;;;2.08;53.69
25944;BME280;13742;49.306;8.636;2023-04-04T04:36:43;101459.29;;;2.09;53.99
25944;BME280;13742;49.306;8.636;2023-04-04T04:37:43;101462.63;;;2.09;53.63
25944;BME280;13742;49.306;8.636;2023-04-04T04:38:44;101459.15;;;2.06;53.89
25944;BME280;13742;49.306;8.636;2023-04-04T04:39:43;101464.75;;;2.09;54.23
25944;BME280;13742;49.306;8.636;2023-04-04T04:40:44;101466.16;;;2.14;54.21
25944;BME280;13742;49.306;8.636;2023-04-04T04:41:43;101463.44;;;2.08;53.76
25944;BME280;13742;49.306;8.636;2023-04-04T04:42:44;101463.39;;;2.07;53.73
25944;BME280;13742;49.306;8.636;2023-04-04T04:43:43;101464.06;;;2.10;54.05
25944;BME280;13742;49.306;8.636;2023-04-04T04:44:43;101465.34;;;2.06;53.54
25944;BME280;13742;49.306;8.636;2023-04-04T04:45:43;101463.32;;;2.03;53.74
25944;BME280;13742;49.306;8.636;2023-04-04T04:46:43;101464.89;;;2.06;53.86
25944;BME280;13742;49.306;8.636;2023-04-04T04:47:43;101467.13;;;2.07;53.95
25944;BME280;13742;49.306;8.636;2023-04-04T04:48:43;101466.00;;;2.03;53.97
25944;BME280;13742;49.306;8.636;2023-04-04T04:49:47;101467.36;;;2.04;54.23
25944;BME280;13742;49.306;8.636;2023-04-04T04:50:44;101467.59;;;2.03;54.29
25944;BME280;13742;49.306;8.636;2023-04-04T04:51:43;101469.54;;;1.97;53.93
25944;BME280;13742;49.306;8.636;2023-04-04T04:52:43;101465.43;;;1.92;54.10
25944;BME280;13742;49.306;8.636;2023-04-04T04:53:43;101467.13;;;1.96;54.20
25944;BME280;13742;49.306;8.636;2023-04-04T04:54:43;101466.64;;;1.96;54.08
25944;BME280;13742;49.306;8.636;2023-04-04T04:55:44;101466.17;;;1.97;54.23
25944;BME280;13742;49.306;8.636;2023-04-04T04:56:43;101464.41;;;1.96;54.11
25944;BME280;13742;49.306;8.636;2023-04-04T04:57:45;101465.06;;;1.96;54.23
25944;BME280;13742;49.306;8.636;2023-04-04T04:58:47;101463.20;;;1.97;54.12
25944;BME280;13742;49.306;8.636;2023-04-04T04:59:43;101468.21;;;1.98;54.07
25944;BME280;13742;49.306;8.636;2023-04-04T05:00:43;101462.39;;;1.98;54.42
25944;BME280;13742;49.306;8.636;2023-04-04T05:01:43;101469.20;;;1.99;54.41
25944;BME280;13742;49.306;8.636;2023-04-04T05:02:44;101465.83;;;2.01;54.40
25944;BME280;13742;49.306;8.636;2023-04-04T05:03:43;101470.22;;;2.01;54.11
25944;BME280;13742;49.306;8.636;2023-04-04T05:04:44;101470.52;;;1.97;54.23
25944;BME280;13742;49.306;8.636;2023-04-04T05:05:43;101472.67;;;1.96;54.10
25944;BME280;13742;49.306;8.636;2023-04-04T05:06:43;101474.89;;;1.88;53.98
25944;BME280;13742;49.306;8.636;2023-04-04T05:07:44;101470.01;;;1.88;54.27
25944;BME280;13742;49.306;8.636;2023-04-04T05:08:43;101473.94;;;1.92;54.30
25944;BME280;13742;49.306;8.636;2023-04-04T05:09:43;101476.91;;;1.91;54.75
25944;BME280;13742;49.306;8.636;2023-04-04T05:10:43;101474.69;;;1.89;54.33
25944;BME280;13742;49.306;8.636;2023-04-04T05:11:43;101473.78;;;1.73;54.34
25944;BME280;13742;49.306;8.636;2023-04-04T05:12:44;101475.09;;;1.78;54.32
25944;BME280;13742;49.306;8.636;2023-04-04T05:13:43;101476.56;;;1.79;54.47
25944;BME280;13742;49.306;8.636;2023-04-04T05:14:43;101476.39;;;1.78;54.67
25944;BME280;13742;49.306;8.636;2023-04-04T05:15:45;101477.93;;;1.82;54.96
25944;BME280;13742;49.306;8.636;2023-04-04T05:16:43;101474.89;;;1.83;54.81
25944;BME280;13742;49.306;8.636;2023-04-04T05:17:43;101474.09;;;1.85;55.12
25944;BME280;13742;49.306;8.636;2023-04-04T05:18:44;101476.77;;;1.89;55.15
25944;BME280;13742;49.306;8.636;2023-04-04T05:19:43;101475.95;;;1.90;55.04
25944;BME280;13742;49.306;8.636;2023-04-04T05:20:48;101473.57;;;1.92;54.77
25944;BME280;13742;49.306;8.636;2023-04-04T05:21:43;101479.59;;;1.95;55.14
25944;BME280;13742;49.306;8.636;2023-04-04T05:22:43;101483.38;;;1.96;54.79
25944;BME280;13742;49.306;8.636;2023-04-04T05:23:44;101474.34;;;1.96;54.94
25944;BME280;13742;49.306;8.636;2023-04-04T05:24:43;101479.63;;;1.96;54.87
25944;BME280;13742;49.306;8.636;2023-04-04T05:25:43;101479.64;;;1.97;55.04
25944;BME280;13742;49.306;8.636;2023-04-04T05:26:43;101481.20;;;1.99;54.61
25944;BME280;13742;49.306;8.636;2023-04-04T05:27:46;101478.91;;;2.01;54.67